Time;durP1;ratioP1;P1;durP2;ratioP2;P2;SDS_P1;SDS_P2;PMS_P1;PMS_P2;Temp;Humidity;BMP_temperature;BMP_pressure;BME280_temperature;BME280_humidity;BME280_pressure;Samples;Min_cycle;Max_cycle;Signal;HPM_P1;HPM_P2
2022/08/24 00:00:36;;;;;;;47.37;26.33;;;20.40;99.90;;;;;;4941101;29;20832;-86
2022/08/24 00:03:03;;;;;;;46.73;29.43;;;20.30;99.90;;;;;;4940604;29;20431;-87
2022/08/24 00:05:30;;;;;;;36.90;27.23;;;20.50;99.90;;;;;;4942412;29;20643;-86
2022/08/24 00:07:58;;;;;;;40.97;28.70;;;20.50;99.90;;;;;;4941694;29;20500;-88
2022/08/24 00:10:25;;;;;;;46.80;28.43;;;20.50;99.90;;;;;;4941528;29;20463;-87
2022/08/24 00:12:52;;;;;;;43.73;27.10;;;20.60;99.90;;;;;;4933906;29;20425;-87
2022/08/24 00:15:20;;;;;;;51.90;30.47;;;20.60;99.90;;;;;;4939824;29;20714;-83
2022/08/24 00:17:55;;;;;;;44.40;28.20;;;20.70;99.90;;;;;;4937337;29;20446;-88
2022/08/24 00:20:29;;;;;;;49.50;28.00;;;20.50;99.90;;;;;;4932027;29;20434;-87
2022/08/24 00:23:01;;;;;;;51.27;27.70;;;20.60;99.90;;;;;;4931765;29;20504;-88
2022/08/24 00:25:35;;;;;;;45.10;29.07;;;20.60;99.90;;;;;;4939754;29;20467;-87
2022/08/24 00:28:04;;;;;;;48.43;31.37;;;20.80;99.90;;;;;;4943267;28;20466;-88
2022/08/24 00:30:33;;;;;;;50.07;28.00;;;20.90;99.90;;;;;;4942061;29;20456;-87
2022/08/24 00:33:01;;;;;;;48.60;31.03;;;20.70;99.90;;;;;;4948416;29;20450;-84
2022/08/24 00:35:28;;;;;;;54.50;29.83;;;20.70;99.90;;;;;;4943207;29;20500;-86
2022/08/24 00:37:57;;;;;;;46.00;30.67;;;20.70;99.90;;;;;;4947076;29;20466;-86
2022/08/24 00:40:33;;;;;;;48.27;30.40;;;20.50;99.90;;;;;;4939773;29;20446;-85
2022/08/24 00:43:03;;;;;;;56.10;31.83;;;20.50;99.90;;;;;;4942075;29;20623;-85
2022/08/24 00:45:39;;;;;;;45.23;32.93;;;20.50;99.90;;;;;;4945809;29;20484;-87
2022/08/24 00:48:25;;;;;;;52.90;30.90;;;20.60;99.90;;;;;;4941730;28;20418;-88
2022/08/24 00:51:19;;;;;;;51.50;32.30;;;20.60;99.90;;;;;;4944662;28;20454;-84
2022/08/24 00:53:52;;;;;;;49.10;28.97;;;20.50;99.90;;;;;;4930846;29;20439;-86
2022/08/24 00:56:27;;;;;;;51.97;29.93;;;20.50;99.90;;;;;;4946226;29;20421;-89
2022/08/24 00:59:22;;;;;;;51.23;31.67;;;20.50;99.90;;;;;;4939020;29;20454;-87
2022/08/24 01:02:10;;;;;;;51.30;29.40;;;20.50;99.90;;;;;;4939141;29;20492;-87
2022/08/24 01:04:54;;;;;;;51.30;30.63;;;20.60;99.90;;;;;;4941748;29;20461;-89
2022/08/24 01:07:28;;;;;;;58.27;29.47;;;20.50;99.90;;;;;;4940756;29;20428;-88
2022/08/24 01:10:13;;;;;;;46.83;28.57;;;20.60;99.90;;;;;;4935707;29;20479;-87
2022/08/24 01:12:45;;;;;;;48.47;29.93;;;20.60;99.90;;;;;;4935617;29;20465;-88
2022/08/24 01:15:34;;;;;;;52.07;30.60;;;20.50;99.90;;;;;;4942401;29;20667;-90
2022/08/24 01:21:19;;;;;;;55.40;32.57;;;20.60;99.90;;;;;;4932394;29;20474;-88
2022/08/24 01:24:00;;;;;;;49.17;27.37;;;20.40;99.90;;;;;;4930073;29;20419;-89
2022/08/24 01:26:38;;;;;;;48.07;30.00;;;20.50;99.90;;;;;;4934671;29;20480;-89
2022/08/24 01:31:48;;;;;;;57.00;31.33;;;20.40;99.90;;;;;;4992702;23;20612;-88
2022/08/24 01:34:16;;;;;;;47.00;30.10;;;20.30;99.90;;;;;;4962870;29;20509;-88
2022/08/24 01:36:54;;;;;;;67.87;31.47;;;20.20;99.90;;;;;;4960650;28;20420;-90
2022/08/24 01:39:36;;;;;;;56.03;33.77;;;20.20;99.90;;;;;;4958495;29;20820;-91
2022/08/24 01:42:03;;;;;;;57.93;30.33;;;20.30;99.90;;;;;;4940300;29;20413;-87
2022/08/24 01:44:33;;;;;;;70.17;34.10;;;20.40;99.90;;;;;;4962705;28;20508;-89
2022/08/24 01:47:03;;;;;;;51.80;33.43;;;20.70;99.90;;;;;;4977957;28;20437;-91
2022/08/24 01:49:38;;;;;;;44.37;30.03;;;20.60;99.90;;;;;;4961696;28;20443;-89
2022/08/24 01:52:14;;;;;;;64.50;32.37;;;20.50;99.90;;;;;;4957396;28;20459;-88
2022/08/24 01:54:45;;;;;;;53.80;33.90;;;20.50;99.90;;;;;;4957988;29;20424;-87
2022/08/24 01:57:19;;;;;;;55.63;31.90;;;20.60;99.90;;;;;;4952928;28;20808;-89
2022/08/24 01:59:58;;;;;;;54.73;32.40;;;20.60;99.90;;;;;;4956992;29;20451;-89
2022/08/24 02:02:39;;;;;;;60.70;32.40;;;20.70;99.90;;;;;;4953683;29;20473;-88
2022/08/24 02:05:08;;;;;;;56.60;31.27;;;20.70;99.90;;;;;;4953846;29;20592;-89
2022/08/24 02:07:36;;;;;;;65.60;33.17;;;20.60;99.90;;;;;;4959794;28;20420;-88
2022/08/24 02:10:11;;;;;;;69.67;35.60;;;20.50;99.90;;;;;;4959204;28;20526;-87
2022/08/24 02:12:44;;;;;;;62.27;32.97;;;20.50;99.90;;;;;;4955700;28;20691;-89
2022/08/24 02:15:11;;;;;;;58.83;33.70;;;20.50;99.90;;;;;;4957609;29;20427;-88
2022/08/24 02:17:42;;;;;;;53.80;31.97;;;20.50;99.90;;;;;;4974435;28;20449;-89
2022/08/24 02:20:10;;;;;;;55.13;32.57;;;20.50;99.90;;;;;;4959700;28;20426;-87
2022/08/24 02:22:37;;;;;;;57.43;32.97;;;20.70;99.90;;;;;;4960595;28;20527;-89
2022/08/24 02:25:05;;;;;;;70.90;33.60;;;20.70;99.90;;;;;;4955491;29;20575;-89
2022/08/24 02:27:36;;;;;;;52.20;32.90;;;20.80;99.90;;;;;;4962583;28;20839;-89
2022/08/24 02:30:04;;;;;;;63.93;31.60;;;20.60;99.90;;;;;;4961275;29;20534;-88
2022/08/24 02:32:32;;;;;;;49.10;32.30;;;20.60;99.90;;;;;;4965517;28;20434;-89
2022/08/24 02:34:59;;;;;;;44.10;30.60;;;20.80;99.90;;;;;;4966336;28;20477;-88
2022/08/24 02:37:30;;;;;;;60.03;32.57;;;20.70;99.90;;;;;;4963857;28;20797;-89
2022/08/24 02:40:00;;;;;;;64.30;34.20;;;20.60;99.90;;;;;;4961817;28;20457;-89
2022/08/24 02:42:31;;;;;;;48.87;29.47;;;20.60;99.90;;;;;;4957294;28;20433;-87
2022/08/24 02:45:02;;;;;;;41.43;29.00;;;20.70;99.90;;;;;;4961054;28;20676;-88
2022/08/24 02:47:30;;;;;;;51.37;31.50;;;20.70;99.90;;;;;;4957679;28;20863;-86
2022/08/24 02:50:12;;;;;;;52.67;34.33;;;20.50;99.90;;;;;;4962100;28;20938;-89
2022/08/24 02:52:42;;;;;;;52.47;30.33;;;20.60;99.90;;;;;;4962596;28;20415;-88
2022/08/24 02:55:14;;;;;;;38.73;30.50;;;20.40;99.90;;;;;;4963766;28;20432;-89
2022/08/24 02:57:50;;;;;;;47.20;30.03;;;20.40;99.90;;;;;;4969664;29;20422;-88
2022/08/24 03:00:22;;;;;;;49.57;29.70;;;20.50;99.90;;;;;;4965178;28;20441;-90
2022/08/24 03:02:50;;;;;;;47.93;31.97;;;20.50;99.90;;;;;;4961643;29;20463;-86
2022/08/24 03:05:22;;;;;;;50.53;30.97;;;20.40;99.90;;;;;;4959374;28;20446;-89
2022/08/24 03:07:49;;;;;;;45.43;30.07;;;20.50;99.90;;;;;;4977180;28;20419;-90
2022/08/24 03:10:21;;;;;;;52.77;31.57;;;20.40;99.90;;;;;;4961440;29;20875;-89
2022/08/24 03:12:50;;;;;;;43.77;30.83;;;20.50;99.90;;;;;;4958790;29;20445;-87
2022/08/24 03:15:27;;;;;;;42.53;30.53;;;20.40;99.90;;;;;;4962058;28;20970;-89
2022/08/24 03:17:54;;;;;;;46.30;29.70;;;20.50;99.90;;;;;;4960183;28;20519;-88
2022/08/24 03:20:22;;;;;;;52.63;33.20;;;20.50;99.90;;;;;;4961707;28;20560;-87
2022/08/24 03:22:51;;;;;;;46.13;31.27;;;20.50;99.90;;;;;;4956904;29;20523;-88
2022/08/24 03:25:23;;;;;;;44.77;30.27;;;20.50;99.90;;;;;;4961334;28;20451;-89
2022/08/24 03:27:51;;;;;;;51.83;27.57;;;20.50;99.90;;;;;;4955140;29;20480;-88
2022/08/24 03:30:23;;;;;;;53.13;32.00;;;20.50;99.90;;;;;;4956405;28;20497;-89
2022/08/24 03:32:51;;;;;;;49.37;30.67;;;20.50;99.90;;;;;;4970822;28;20438;-86
2022/08/24 03:35:21;;;;;;;52.60;33.57;;;20.50;99.90;;;;;;4969097;28;20552;-90
2022/08/24 03:37:49;;;;;;;41.93;29.80;;;20.40;99.90;;;;;;4963994;28;20461;-89
2022/08/24 03:40:19;;;;;;;47.60;32.17;;;20.30;99.90;;;;;;4970083;28;20889;-89
2022/08/24 03:42:51;;;;;;;52.83;31.20;;;20.30;99.90;;;;;;4955675;29;20432;-87
2022/08/24 03:45:22;;;;;;;41.00;30.83;;;20.40;99.90;;;;;;4970877;28;20412;-88
2022/08/24 03:47:56;;;;;;;49.37;31.20;;;20.50;99.90;;;;;;4968761;28;20453;-89
2022/08/24 03:50:24;;;;;;;50.23;31.80;;;20.50;99.90;;;;;;4960673;29;20833;-88
2022/08/24 03:52:59;;;;;;;50.13;30.57;;;20.30;99.90;;;;;;4961751;28;20420;-90
2022/08/24 03:55:32;;;;;;;47.83;30.20;;;20.30;99.90;;;;;;4962154;28;20537;-89
2022/08/24 03:58:04;;;;;;;62.87;35.53;;;20.40;99.90;;;;;;4959827;29;20427;-89
2022/08/24 04:00:42;;;;;;;52.90;30.30;;;20.30;99.90;;;;;;4962645;28;20419;-87
2022/08/24 04:03:11;;;;;;;49.27;29.03;;;20.30;99.90;;;;;;4957296;28;20642;-91
2022/08/24 04:05:44;;;;;;;51.40;29.90;;;20.50;99.90;;;;;;4950030;29;20422;-90
2022/08/24 04:08:14;;;;;;;47.07;29.10;;;20.60;99.90;;;;;;4965984;28;20457;-86
2022/08/24 04:10:47;;;;;;;46.37;33.40;;;20.80;99.90;;;;;;4982813;28;20493;-89
2022/08/24 04:13:16;;;;;;;45.53;29.00;;;20.80;99.90;;;;;;4967386;28;20422;-90
2022/08/24 04:15:43;;;;;;;41.57;27.93;;;20.90;99.90;;;;;;4962334;28;21089;-87
2022/08/24 04:18:11;;;;;;;39.37;28.50;;;20.80;99.90;;;;;;4961432;28;20428;-89
2022/08/24 04:20:43;;;;;;;49.70;29.27;;;20.70;99.90;;;;;;4953240;28;20450;-88
2022/08/24 04:23:12;;;;;;;47.10;29.57;;;20.60;99.90;;;;;;4970353;28;20535;-88
2022/08/24 04:25:45;;;;;;;42.00;29.60;;;20.50;99.90;;;;;;4956391;28;20964;-88
2022/08/24 04:28:17;;;;;;;41.83;27.50;;;20.60;99.90;;;;;;4961254;28;20454;-88
2022/08/24 04:30:49;;;;;;;51.23;30.73;;;20.70;99.90;;;;;;4958955;28;20837;-87
2022/08/24 04:33:18;;;;;;;42.40;29.20;;;20.70;99.90;;;;;;4961573;28;20592;-86
2022/08/24 04:35:47;;;;;;;41.87;28.80;;;20.80;99.90;;;;;;4953296;29;20420;-89
2022/08/24 04:38:18;;;;;;;39.77;27.60;;;21.00;99.90;;;;;;4963166;28;20492;-87
2022/08/24 04:40:48;;;;;;;39.67;28.20;;;21.00;99.90;;;;;;4969156;28;20428;-87
2022/08/24 04:43:16;;;;;;;42.50;29.00;;;21.10;99.90;;;;;;4957634;28;20392;-86
2022/08/24 04:45:51;;;;;;;33.40;26.33;;;20.90;99.90;;;;;;4974266;28;20492;-87
2022/08/24 04:48:19;;;;;;;42.30;24.47;;;21.00;99.90;;;;;;4974618;28;20442;-88
2022/08/24 04:50:46;;;;;;;37.80;27.40;;;21.00;99.90;;;;;;4966701;28;20508;-88
2022/08/24 04:53:16;;;;;;;36.40;26.37;;;21.10;99.90;;;;;;4961146;29;20448;-87
2022/08/24 04:55:49;;;;;;;31.70;26.50;;;21.00;99.90;;;;;;4962205;29;20491;-88
2022/08/24 04:58:22;;;;;;;31.23;23.77;;;21.00;99.90;;;;;;4962035;28;20514;-89
2022/08/24 05:00:51;;;;;;;40.00;25.43;;;21.10;99.90;;;;;;4955793;28;20454;-89
2022/08/24 05:03:18;;;;;;;33.40;25.67;;;21.10;99.90;;;;;;4953293;29;20482;-87
2022/08/24 05:05:50;;;;;;;41.00;26.90;;;20.70;99.90;;;;;;4954049;29;20460;-91
2022/08/24 05:08:19;;;;;;;38.67;26.07;;;20.50;99.90;;;;;;4954687;28;20481;-88
2022/08/24 05:10:49;;;;;;;31.57;24.60;;;20.50;99.90;;;;;;4948958;29;20461;-87
2022/08/24 05:13:22;;;;;;;35.07;26.00;;;20.50;99.90;;;;;;4956956;28;20538;-86
2022/08/24 05:18:31;;;;;;;34.40;28.27;;;20.80;99.90;;;;;;4927022;29;20441;-87
2022/08/24 05:21:04;;;;;;;32.57;27.50;;;21.00;99.90;;;;;;4927310;29;20427;-87
2022/08/24 05:23:34;;;;;;;36.47;26.73;;;21.30;99.90;;;;;;4929607;29;20437;-86
2022/08/24 05:28:46;;;;;;;29.10;25.33;;;21.60;99.90;;;;;;4987037;23;20485;-90
2022/08/24 05:31:16;;;;;;;28.03;23.63;;;21.70;99.90;;;;;;4994498;28;20593;-89
2022/08/24 05:33:58;;;;;;;39.50;28.37;;;21.90;99.90;;;;;;4983493;28;20431;-87
2022/08/24 05:36:30;;;;;;;34.83;25.63;;;22.20;99.90;;;;;;4986572;28;20484;-89
2022/08/24 05:39:02;;;;;;;35.83;24.47;;;22.20;99.90;;;;;;4983204;28;20471;-87
2022/08/24 05:41:41;;;;;;;26.83;20.30;;;22.20;99.90;;;;;;4975323;28;20445;-89
2022/08/24 05:44:12;;;;;;;28.10;22.03;;;22.10;99.90;;;;;;4981740;28;20491;-88
2022/08/24 05:46:39;;;;;;;27.17;21.20;;;21.90;99.90;;;;;;4984769;28;20431;-89
2022/08/24 05:49:08;;;;;;;24.33;21.63;;;21.80;99.90;;;;;;4980778;28;20445;-90
2022/08/24 05:51:37;;;;;;;28.13;20.80;;;21.90;99.90;;;;;;4981970;28;20460;-88
2022/08/24 05:54:17;;;;;;;26.97;22.17;;;22.00;99.90;;;;;;4984342;28;20408;-87
2022/08/24 05:56:45;;;;;;;30.67;20.83;;;22.10;99.90;;;;;;4981384;28;20414;-87
2022/08/24 05:59:18;;;;;;;21.90;19.23;;;22.00;99.90;;;;;;4979497;28;20485;-87
2022/08/24 06:01:45;;;;;;;23.20;20.10;;;21.70;99.90;;;;;;4980934;28;20480;-87
2022/08/24 06:04:14;;;;;;;24.50;19.90;;;21.60;99.90;;;;;;4965158;28;20851;-86
2022/08/24 06:06:46;;;;;;;30.87;20.80;;;21.60;99.90;;;;;;4982838;28;20453;-86
2022/08/24 06:09:15;;;;;;;24.53;21.97;;;21.60;99.90;;;;;;4983266;28;20423;-86
2022/08/24 06:11:45;;;;;;;30.13;22.27;;;21.70;99.90;;;;;;4988645;28;20512;-88
2022/08/24 06:14:17;;;;;;;22.57;20.07;;;21.60;99.90;;;;;;4989012;28;20416;-87
2022/08/24 06:16:45;;;;;;;26.87;22.30;;;21.60;99.90;;;;;;4976649;28;20764;-86
2022/08/24 06:19:19;;;;;;;26.20;22.20;;;21.60;99.90;;;;;;4982927;28;20613;-86
2022/08/24 06:21:49;;;;;;;25.43;22.73;;;21.70;99.90;;;;;;4977084;28;20969;-86
2022/08/24 06:27:20;;;;;;;31.73;21.23;;;21.70;99.90;;;;;;4989392;28;20464;-88
2022/08/24 06:29:55;;;;;;;36.47;21.83;;;21.70;99.90;;;;;;4982002;28;20412;-88
2022/08/24 06:32:25;;;;;;;25.97;20.37;;;21.50;99.90;;;;;;4976992;28;20481;-89
2022/08/24 06:34:55;;;;;;;25.90;21.00;;;21.40;99.90;;;;;;4983009;28;20606;-89
2022/08/24 06:37:26;;;;;;;28.03;21.47;;;21.40;99.90;;;;;;4978319;28;20537;-86
2022/08/24 06:39:56;;;;;;;32.07;23.80;;;21.30;99.90;;;;;;4982082;28;20507;-86
2022/08/24 06:42:24;;;;;;;24.20;20.63;;;21.40;99.90;;;;;;4978307;28;20938;-88
2022/08/24 06:44:51;;;;;;;32.67;23.63;;;21.40;99.90;;;;;;4981938;28;20454;-86
2022/08/24 06:47:19;;;;;;;38.10;24.90;;;21.50;99.90;;;;;;4979165;28;20496;-85
2022/08/24 06:49:53;;;;;;;28.90;22.80;;;21.70;99.90;;;;;;4995806;28;20416;-86
2022/08/24 06:52:38;;;;;;;43.30;22.77;;;21.60;99.90;;;;;;4978298;28;20451;-88
2022/08/24 06:55:06;;;;;;;37.03;24.43;;;21.60;99.90;;;;;;4973152;28;20455;-87
2022/08/24 06:57:33;;;;;;;33.17;25.63;;;21.50;99.90;;;;;;4981275;28;20427;-87
2022/08/24 07:00:00;;;;;;;36.40;26.20;;;21.30;99.90;;;;;;4979686;28;21093;-86
2022/08/24 07:02:29;;;;;;;30.93;24.67;;;21.20;99.90;;;;;;4995530;28;20447;-85
2022/08/24 07:05:02;;;;;;;32.53;22.03;;;21.00;99.90;;;;;;4954353;28;20430;-86
2022/08/24 07:08:15;;;;;;;35.40;27.27;;;21.00;99.90;;;;;;4961835;28;20446;-87
2022/08/24 07:10:42;;;;;;;36.83;26.07;;;21.00;99.90;;;;;;4974444;28;20452;-88
2022/08/24 07:13:14;;;;;;;39.17;27.10;;;21.20;99.90;;;;;;4976363;28;20427;-85
2022/08/24 07:15:46;;;;;;;40.30;28.73;;;21.30;99.90;;;;;;4988618;28;20453;-84
2022/08/24 07:18:15;;;;;;;35.67;25.53;;;21.30;99.90;;;;;;5000780;28;20430;-85
2022/08/24 07:20:42;;;;;;;36.73;27.07;;;21.50;99.90;;;;;;4981404;28;20458;-85
2022/08/24 07:23:13;;;;;;;37.53;26.20;;;21.90;99.90;;;;;;4978131;28;20422;-84
2022/08/24 07:25:41;;;;;;;35.87;25.60;;;22.60;99.90;;;;;;4974041;28;20428;-85
2022/08/24 07:28:18;;;;;;;31.20;22.50;;;23.20;99.90;;;;;;4976839;28;20467;-85
2022/08/24 07:30:58;;;;;;;24.07;20.00;;;23.20;99.90;;;;;;4969581;28;20430;-86
2022/08/24 07:33:28;;;;;;;22.23;18.33;;;23.10;99.90;;;;;;4977329;28;20523;-87
2022/08/24 07:36:18;;;;;;;22.40;19.30;;;23.10;99.90;;;;;;4982599;28;20432;-88
2022/08/24 07:39:30;;;;;;;25.70;17.97;;;23.10;99.90;;;;;;4967051;28;20493;-89
2022/08/24 07:42:06;;;;;;;21.20;16.50;;;23.30;99.90;;;;;;4971823;28;20428;-87
2022/08/24 07:44:40;;;;;;;21.20;17.87;;;22.90;99.90;;;;;;4978594;28;20428;-87
2022/08/24 07:47:12;;;;;;;23.90;18.07;;;22.80;99.90;;;;;;4973561;28;20502;-87
2022/08/24 07:50:13;;;;;;;23.83;17.97;;;22.80;99.90;;;;;;4972036;28;20672;-88
2022/08/24 07:52:47;;;;;;;20.67;17.17;;;22.80;99.90;;;;;;5002170;28;20500;-84
2022/08/24 07:55:15;;;;;;;20.00;17.07;;;22.70;99.90;;;;;;4979267;28;20427;-84
2022/08/24 07:57:46;;;;;;;21.00;16.17;;;22.70;99.90;;;;;;4980612;28;20418;-87
2022/08/24 08:00:18;;;;;;;17.37;15.47;;;22.70;99.90;;;;;;4982208;28;20471;-87
2022/08/24 08:02:46;;;;;;;18.83;14.80;;;22.90;99.90;;;;;;4977728;28;20502;-87
2022/08/24 08:05:34;;;;;;;18.03;14.20;;;22.80;99.90;;;;;;4975308;28;20499;-87
2022/08/24 08:08:15;;;;;;;15.80;14.20;;;23.10;99.90;;;;;;4973606;28;20499;-89
2022/08/24 08:10:43;;;;;;;18.90;16.90;;;23.50;99.90;;;;;;4972624;28;20631;-90
2022/08/24 08:13:15;;;;;;;20.60;15.53;;;23.70;99.90;;;;;;4980549;28;20748;-88
2022/08/24 08:15:55;;;;;;;16.67;14.73;;;23.80;99.90;;;;;;4974456;28;20416;-90
2022/08/24 08:18:30;;;;;;;18.03;16.23;;;23.90;99.90;;;;;;4974199;28;20452;-88
2022/08/24 08:20:58;;;;;;;19.23;16.03;;;23.70;99.90;;;;;;4986915;28;20423;-89
2022/08/24 08:26:25;;;;;;;17.37;15.13;;;23.60;99.90;;;;;;4985543;28;20835;-86
2022/08/24 08:28:52;;;;;;;20.90;15.47;;;23.60;99.90;;;;;;4970044;28;20431;-90
2022/08/24 08:31:20;;;;;;;19.07;15.20;;;23.50;99.90;;;;;;4979458;28;20675;-85
2022/08/24 08:33:56;;;;;;;20.80;16.97;;;23.40;99.90;;;;;;4978350;28;20442;-88
2022/08/24 08:37:14;;;;;;;16.80;15.13;;;23.30;99.90;;;;;;4975175;28;20425;-89
2022/08/24 08:39:53;;;;;;;16.80;15.00;;;23.60;99.90;;;;;;4976814;28;20411;-89
2022/08/24 08:42:57;;;;;;;18.40;16.30;;;24.20;99.90;;;;;;4998425;28;20437;-89
2022/08/24 08:46:17;;;;;;;18.30;16.50;;;24.20;99.90;;;;;;4976060;28;20446;-86
2022/08/24 08:49:01;;;;;;;19.23;16.90;;;23.60;99.90;;;;;;4971946;28;20423;-86
2022/08/24 08:51:37;;;;;;;17.70;15.90;;;23.00;99.90;;;;;;4982151;28;20497;-87
2022/08/24 08:54:21;;;;;;;20.40;18.07;;;22.70;99.90;;;;;;4980975;28;20474;-90
2022/08/24 08:57:17;;;;;;;19.73;17.57;;;22.60;99.90;;;;;;4973697;28;20438;-89
2022/08/24 09:00:00;;;;;;;20.40;15.97;;;22.50;99.90;;;;;;4981439;28;20417;-88
2022/08/24 09:03:15;;;;;;;18.40;15.70;;;22.50;99.90;;;;;;4978634;28;20398;-88
2022/08/24 09:06:34;;;;;;;18.67;16.67;;;22.60;99.90;;;;;;4983350;28;20426;-88
2022/08/24 09:09:54;;;;;;;16.67;14.27;;;22.40;99.90;;;;;;4980195;28;20520;-87
2022/08/24 09:12:53;;;;;;;20.40;16.37;;;22.50;99.90;;;;;;4957062;28;20479;-88
2022/08/24 09:15:39;;;;;;;21.83;17.50;;;22.50;99.90;;;;;;4969823;28;20485;-88
2022/08/24 09:18:30;;;;;;;19.37;15.50;;;22.50;99.90;;;;;;4979168;28;20444;-88
2022/08/24 09:21:52;;;;;;;17.90;14.20;;;22.50;99.90;;;;;;4980698;28;20447;-89
2022/08/24 09:24:53;;;;;;;19.37;15.53;;;22.40;99.90;;;;;;4970439;28;20763;-88
2022/08/24 09:27:58;;;;;;;18.00;16.20;;;22.40;99.90;;;;;;4968192;28;20416;-87
2022/08/24 09:30:47;;;;;;;18.57;15.07;;;22.40;99.90;;;;;;4978685;28;20463;-87
2022/08/24 09:33:29;;;;;;;18.63;15.57;;;22.50;99.90;;;;;;4978534;28;20474;-87
2022/08/24 09:36:50;;;;;;;16.43;14.83;;;22.60;99.90;;;;;;4967555;28;20461;-88
2022/08/24 09:39:56;;;;;;;17.27;14.73;;;22.70;99.90;;;;;;4957087;28;20485;-88
2022/08/24 09:43:11;;;;;;;22.07;17.30;;;22.50;99.90;;;;;;4976417;28;20445;-89
2022/08/24 09:46:16;;;;;;;15.77;14.27;;;22.70;99.90;;;;;;4977882;28;20455;-87
2022/08/24 09:49:26;;;;;;;18.00;16.20;;;22.80;99.90;;;;;;4983209;28;20414;-88
2022/08/24 09:52:12;;;;;;;17.07;13.90;;;22.80;99.90;;;;;;4991362;28;20498;-88
2022/08/24 09:55:06;;;;;;;16.97;15.17;;;23.10;99.90;;;;;;4982031;28;20450;-89
2022/08/24 09:58:16;;;;;;;16.57;14.70;;;23.20;99.90;;;;;;4976703;28;20428;-89
2022/08/24 10:04:45;;;;;;;19.70;17.60;;;23.40;99.90;;;;;;5004736;28;20413;-86
2022/08/24 10:07:26;;;;;;;20.87;16.30;;;22.90;99.90;;;;;;4997312;28;20416;-87
2022/08/24 10:10:25;;;;;;;25.03;18.57;;;22.60;99.90;;;;;;4996828;28;20452;-89
2022/08/24 10:13:29;;;;;;;18.30;16.27;;;22.60;99.90;;;;;;4990148;28;20445;-87
2022/08/24 10:16:15;;;;;;;19.43;15.90;;;22.80;99.90;;;;;;4976136;28;20432;-86
2022/08/24 10:18:56;;;;;;;21.23;18.20;;;22.70;99.90;;;;;;4984051;28;20428;-89
2022/08/24 10:21:29;;;;;;;23.47;20.50;;;22.60;99.90;;;;;;4985324;28;20457;-87
2022/08/24 10:24:22;;;;;;;32.40;18.00;;;22.70;99.90;;;;;;4995458;28;20422;-86
2022/08/24 10:27:24;;;;;;;26.33;17.80;;;22.40;99.90;;;;;;4981626;28;20427;-87
2022/08/24 10:30:16;;;;;;;20.17;18.10;;;22.40;99.90;;;;;;4993910;28;20434;-88
2022/08/24 10:33:04;;;;;;;18.90;17.00;;;22.70;99.90;;;;;;4980581;28;20803;-87
2022/08/24 10:35:37;;;;;;;21.80;16.83;;;22.80;99.90;;;;;;4978996;28;20490;-85
2022/08/24 10:41:49;;;;;;;20.93;18.73;;;22.60;99.90;;;;;;4971129;28;20423;-87
2022/08/24 10:44:41;;;;;;;24.10;19.20;;;22.70;99.90;;;;;;4969894;28;20407;-87
2022/08/24 10:47:25;;;;;;;21.00;17.40;;;22.70;99.90;;;;;;4980168;28;20431;-86
2022/08/24 10:49:58;;;;;;;25.70;20.10;;;22.80;99.90;;;;;;4975110;28;20523;-86
2022/08/24 10:53:16;;;;;;;22.27;18.67;;;23.00;99.90;;;;;;4977186;28;20457;-85
2022/08/24 10:56:07;;;;;;;23.67;17.97;;;23.10;99.90;;;;;;4981365;28;20542;-86
2022/08/24 10:58:46;;;;;;;24.40;19.13;;;23.20;99.90;;;;;;4980379;28;20464;-86
2022/08/24 11:01:35;;;;;;;20.63;17.00;;;23.30;99.90;;;;;;4969696;28;20445;-87
2022/08/24 11:04:12;;;;;;;18.87;16.87;;;23.30;99.90;;;;;;4968441;28;20561;-86
2022/08/24 11:07:03;;;;;;;19.47;16.13;;;23.60;99.90;;;;;;4978487;28;20683;-89
2022/08/24 11:09:59;;;;;;;20.87;18.73;;;23.90;99.90;;;;;;4981334;28;20495;-86
2022/08/24 11:12:35;;;;;;;18.37;15.20;;;24.00;99.90;;;;;;4973860;28;20489;-85
2022/08/24 11:15:25;;;;;;;21.00;16.13;;;24.30;99.90;;;;;;4976563;28;20467;-85
2022/08/24 11:18:03;;;;;;;17.67;15.90;;;24.20;99.90;;;;;;4963589;28;20449;-89
2022/08/24 11:20:31;;;;;;;17.50;14.87;;;25.00;99.90;;;;;;4980783;28;20606;-87
2022/08/24 11:23:14;;;;;;;16.60;14.87;;;25.40;99.90;;;;;;4981915;28;20444;-88
2022/08/24 11:26:20;;;;;;;18.53;14.57;;;25.80;99.90;;;;;;4981404;28;20445;-86
2022/08/24 11:29:15;;;;;;;15.40;13.80;;;25.50;99.90;;;;;;4973102;28;20403;-89
2022/08/24 11:31:49;;;;;;;20.27;14.00;;;25.20;99.90;;;;;;4974934;28;20420;-90
2022/08/24 11:34:45;;;;;;;15.60;13.87;;;25.60;99.90;;;;;;4977647;28;20415;-89
2022/08/24 11:37:17;;;;;;;14.30;12.77;;;25.30;99.90;;;;;;4970313;28;20575;-86
2022/08/24 11:39:52;;;;;;;15.60;14.10;;;25.20;99.90;;;;;;4974259;28;20590;-89
2022/08/24 11:42:48;;;;;;;15.53;14.10;;;25.00;99.90;;;;;;4976660;28;20481;-89
2022/08/24 11:45:19;;;;;;;19.50;15.40;;;25.00;99.90;;;;;;4992362;28;20452;-88
2022/08/24 11:48:04;;;;;;;14.50;13.10;;;24.70;99.90;;;;;;4974228;28;20470;-87
2022/08/24 11:51:16;;;;;;;15.93;12.57;;;24.30;99.90;;;;;;4980986;28;20460;-90
2022/08/24 11:54:23;;;;;;;14.73;13.23;;;24.20;99.90;;;;;;4966081;28;20462;-90
2022/08/24 11:57:09;;;;;;;14.27;12.73;;;24.40;99.90;;;;;;4980207;28;20463;-87
2022/08/24 11:59:51;;;;;;;17.20;13.40;;;25.00;99.90;;;;;;4979733;28;20773;-89
2022/08/24 12:02:40;;;;;;;14.27;12.77;;;25.00;99.90;;;;;;4980047;28;20438;-88
2022/08/24 12:05:56;;;;;;;17.53;13.97;;;25.30;99.90;;;;;;4977923;28;20481;-88
2022/08/24 12:08:36;;;;;;;15.10;13.47;;;25.40;99.90;;;;;;4974047;28;20412;-89
2022/08/24 12:11:24;;;;;;;15.20;13.67;;;25.20;99.90;;;;;;4981488;28;20494;-89
2022/08/24 12:14:05;;;;;;;15.53;13.23;;;25.30;99.90;;;;;;4977682;28;20522;-88
2022/08/24 12:17:01;;;;;;;14.57;13.17;;;25.40;99.90;;;;;;4978766;28;20679;-88
2022/08/24 12:19:43;;;;;;;17.53;12.57;;;25.50;99.90;;;;;;4963735;28;20449;-89
2022/08/24 12:22:12;;;;;;;12.67;11.20;;;26.00;99.90;;;;;;4965853;28;21003;-89
2022/08/24 12:24:47;;;;;;;16.33;13.73;;;26.30;99.90;;;;;;4979609;28;20491;-88
2022/08/24 12:27:33;;;;;;;16.40;12.57;;;26.30;99.90;;;;;;4978293;28;20478;-88
2022/08/24 12:30:13;;;;;;;12.53;11.33;;;26.10;99.90;;;;;;4972573;28;20429;-91
2022/08/24 12:33:09;;;;;;;14.43;12.93;;;25.90;99.90;;;;;;4980829;28;20476;-87
2022/08/24 12:36:13;;;;;;;;;;;;;;;;;;;;;
2022/08/24 12:38:46;;;;;;;15.10;12.53;;;25.70;99.90;;;;;;4980185;28;20503;-90
2022/08/24 12:41:32;;;;;;;13.43;11.30;;;25.50;99.90;;;;;;4976024;28;20472;-89
2022/08/24 12:44:15;;;;;;;14.40;12.43;;;25.50;99.90;;;;;;4974926;28;20419;-88
2022/08/24 12:46:52;;;;;;;14.47;12.93;;;25.50;99.90;;;;;;4977773;28;20427;-87
2022/08/24 12:49:49;;;;;;;14.37;11.47;;;25.30;99.90;;;;;;4974253;28;20859;-90
2022/08/24 12:53:10;;;;;;;14.90;12.87;;;25.20;99.90;;;;;;4974562;28;20472;-91
2022/08/24 12:56:17;;;;;;;17.40;13.63;;;25.30;99.90;;;;;;4956882;28;20476;-87
2022/08/24 12:59:05;;;;;;;12.93;11.73;;;25.60;99.90;;;;;;4976721;28;20810;-88
2022/08/24 13:01:55;;;;;;;13.27;11.97;;;25.60;99.90;;;;;;4978691;28;20426;-89
2022/08/24 13:04:57;;;;;;;13.37;11.67;;;25.60;99.90;;;;;;4978720;28;20415;-88
2022/08/24 13:07:54;;;;;;;14.13;12.23;;;25.70;99.90;;;;;;4978891;28;20452;-89
2022/08/24 13:10:44;;;;;;;13.53;12.23;;;26.00;99.90;;;;;;4977915;28;20427;-89
2022/08/24 13:13:19;;;;;;;12.53;11.43;;;26.50;99.90;;;;;;4980944;28;20458;-89
2022/08/24 13:15:54;;;;;;;12.93;11.50;;;26.80;99.90;;;;;;4972640;28;20906;-89
2022/08/24 13:18:50;;;;;;;12.43;10.50;;;26.80;99.90;;;;;;4975484;28;20437;-90
2022/08/24 13:21:36;;;;;;;14.53;12.47;;;27.10;99.90;;;;;;4983021;28;20456;-89
2022/08/24 13:24:26;;;;;;;20.50;11.93;;;27.10;99.90;;;;;;4981528;28;20518;-90
2022/08/24 13:27:12;;;;;;;11.60;10.60;;;27.20;99.90;;;;;;4973305;28;20518;-89
2022/08/24 13:30:02;;;;;;;12.73;10.70;;;27.20;99.90;;;;;;4978929;28;20798;-89
2022/08/24 13:32:50;;;;;;;12.50;11.30;;;26.70;99.90;;;;;;4985299;28;20499;-91
2022/08/24 13:35:59;;;;;;;18.77;11.50;;;26.30;99.90;;;;;;4984103;28;20456;-87
2022/08/24 13:38:47;;;;;;;14.87;11.23;;;26.00;99.90;;;;;;4982718;28;20455;-89
2022/08/24 13:41:45;;;;;;;11.83;10.30;;;25.50;99.90;;;;;;4996880;28;20417;-86
2022/08/24 13:44:25;;;;;;;11.30;10.27;;;25.00;99.90;;;;;;5090332;23;20514;-86
2022/08/24 13:47:16;;;;;;;13.53;12.10;;;25.00;99.90;;;;;;4955040;29;20434;-89
2022/08/24 13:49:50;;;;;;;11.43;10.23;;;25.00;99.90;;;;;;4966653;28;20481;-88
2022/08/24 13:52:45;;;;;;;10.83;9.70;;;25.10;99.90;;;;;;5125178;23;20504;-86